Time;durP1;ratioP1;P1;durP2;ratioP2;P2;SDS_P1;SDS_P2;PMS_P1;PMS_P2;Temp;Humidity;BMP_temperature;BMP_pressure;BME280_temperature;BME280_humidity;BME280_pressure;Samples;Min_cycle;Max_cycle;Signal;HPM_P1;HPM_P2
2021/05/14 00:00:20;;;;;;;18.50;15.98;;;;;;;-145.50;100.00;65435.88;4998269;28;20061;-74
2021/05/14 00:03:08;;;;;;;18.25;16.02;;;;;;;-145.50;100.00;65435.88;4990626;28;20129;-74
2021/05/14 00:06:33;;;;;;;18.33;13.55;;;;;;;-145.50;100.00;65435.88;4997543;28;20478;-74
2021/05/14 00:09:58;;;;;;;16.20;14.43;;;;;;;-145.50;100.00;65435.88;4993274;28;20128;-74
2021/05/14 00:13:24;;;;;;;19.42;15.77;;;;;;;-145.50;100.00;65435.88;5001152;28;20053;-74
2021/05/14 00:16:50;;;;;;;19.30;15.27;;;;;;;-145.50;100.00;65435.88;5012405;28;20045;-74
2021/05/14 00:20:16;;;;;;;19.27;15.68;;;;;;;-145.50;100.00;65435.88;4988957;28;20050;-74
2021/05/14 00:23:15;;;;;;;20.05;16.20;;;;;;;-145.50;100.00;65435.88;4999231;28;20085;-73
2021/05/14 00:26:03;;;;;;;19.42;16.33;;;;;;;-145.50;100.00;65435.88;4995746;28;20080;-75
2021/05/14 00:29:28;;;;;;;21.95;17.20;;;;;;;-145.50;100.00;65435.88;4996600;28;20061;-73
2021/05/14 00:32:53;;;;;;;18.63;16.08;;;;;;;-145.50;100.00;65435.88;4991875;28;20080;-75
2021/05/14 00:35:45;;;;;;;17.73;15.65;;;;;;;-145.50;100.00;65435.88;4998730;28;20089;-74
2021/05/14 00:39:01;;;;;;;20.23;16.10;;;;;;;-145.50;100.00;65435.88;4997095;28;20131;-74
2021/05/14 00:42:27;;;;;;;20.67;16.45;;;;;;;-145.50;100.00;65435.88;4995855;28;20054;-74
2021/05/14 00:45:32;;;;;;;22.15;18.30;;;;;;;-145.50;100.00;65435.88;4992398;28;20054;-74
2021/05/14 00:48:57;;;;;;;21.50;16.98;;;;;;;-145.50;100.00;65435.88;4992001;28;20053;-73
2021/05/14 00:51:48;;;;;;;22.23;17.92;;;;;;;-145.50;100.00;65435.88;5000362;28;20084;-74
2021/05/14 00:54:40;;;;;;;21.25;18.17;;;;;;;-145.50;100.00;65435.88;4986711;28;20062;-73
2021/05/14 00:58:05;;;;;;;22.13;19.58;;;;;;;-145.50;100.00;65435.88;4997999;28;20144;-74
2021/05/14 01:01:30;;;;;;;20.80;18.23;;;;;;;-145.50;100.00;65435.88;4992328;28;20052;-74
2021/05/14 01:04:56;;;;;;;25.58;19.65;;;;;;;-145.50;100.00;65435.88;4992938;28;20065;-73
2021/05/14 01:08:21;;;;;;;23.67;19.17;;;;;;;-145.50;100.00;65435.88;4995396;28;20517;-74
2021/05/14 01:11:46;;;;;;;24.73;19.75;;;;;;;-145.50;100.00;65435.88;4993404;28;20062;-73
2021/05/14 01:15:12;;;;;;;23.40;20.10;;;;;;;-145.50;100.00;65435.88;4989995;28;20077;-73
2021/05/14 01:18:37;;;;;;;28.60;22.65;;;;;;;-145.50;100.00;65435.88;4988507;28;20053;-73
2021/05/14 01:22:03;;;;;;;27.85;22.13;;;;;;;-145.50;100.00;65435.88;5000814;28;20145;-72
2021/05/14 01:25:30;;;;;;;29.77;23.40;;;;;;;-145.50;100.00;65435.88;4992233;28;20156;-72
2021/05/14 01:28:55;;;;;;;31.23;24.55;;;;;;;-145.50;100.00;65435.88;4990881;28;23928;-73
2021/05/14 01:32:21;;;;;;;28.75;23.30;;;;;;;-145.50;100.00;65435.88;4998279;28;20413;-72
2021/05/14 01:35:20;;;;;;;29.10;22.30;;;;;;;-145.50;100.00;65435.88;4989988;28;20054;-73
2021/05/14 01:38:15;;;;;;;27.63;22.85;;;;;;;-145.50;100.00;65435.88;4995851;28;20153;-73
2021/05/14 01:41:08;;;;;;;26.95;22.17;;;;;;;-145.50;100.00;65435.88;4990398;28;20081;-73
2021/05/14 01:43:59;;;;;;;31.33;24.27;;;;;;;-145.50;100.00;65435.88;4994659;28;20058;-72
2021/05/14 01:46:53;;;;;;;31.27;23.73;;;;;;;-145.50;100.00;65435.88;4995578;28;20059;-73
2021/05/14 01:49:43;;;;;;;32.15;24.60;;;;;;;-145.50;100.00;65435.88;4995871;28;20073;-73
2021/05/14 01:52:32;;;;;;;31.83;24.90;;;;;;;-145.50;100.00;65435.88;5013215;28;20579;-72
2021/05/14 01:55:20;;;;;;;35.92;27.73;;;;;;;-145.50;100.00;65435.88;4992060;28;20124;-73
2021/05/14 01:58:07;;;;;;;37.20;26.00;;;;;;;-145.50;100.00;65435.88;4990505;28;20167;-73
2021/05/14 02:01:11;;;;;;;37.50;27.30;;;;;;;-145.50;100.00;65435.88;4995752;28;20400;-73
2021/05/14 02:04:16;;;;;;;35.35;27.10;;;;;;;-145.50;100.00;65435.88;4991686;28;20658;-73
2021/05/14 02:07:41;;;;;;;35.63;26.30;;;;;;;-145.50;100.00;65435.88;4996113;28;20105;-73
2021/05/14 02:11:09;;;;;;;34.05;28.42;;;;;;;-145.50;100.00;65435.88;4994679;28;20469;-73
2021/05/14 02:14:38;;;;;;;35.88;27.50;;;;;;;-145.50;100.00;65435.88;4986314;28;20062;-73
2021/05/14 02:18:03;;;;;;;37.60;28.63;;;;;;;-145.50;100.00;65435.88;4998367;28;20097;-73
2021/05/14 02:21:28;;;;;;;37.75;28.85;;;;;;;-145.50;100.00;65435.88;4992831;28;20054;-73
2021/05/14 02:24:53;;;;;;;33.72;27.92;;;;;;;-145.50;100.00;65435.88;4986242;28;20198;-73
2021/05/14 02:28:18;;;;;;;38.00;30.33;;;;;;;-145.50;100.00;65435.88;4998102;28;20054;-73
2021/05/14 02:31:43;;;;;;;35.70;28.27;;;;;;;-145.50;100.00;65435.88;4992371;28;20556;-73
2021/05/14 02:35:09;;;;;;;38.08;28.92;;;;;;;-145.50;100.00;65435.88;4995647;28;20053;-73
2021/05/14 02:38:13;;;;;;;38.03;29.65;;;;;;;-145.50;100.00;65435.88;4983334;28;20109;-73
2021/05/14 02:41:12;;;;;;;37.10;28.73;;;;;;;-145.50;100.00;65435.88;4997809;28;20079;-74
2021/05/14 02:44:03;;;;;;;38.45;28.92;;;;;;;-145.50;100.00;65435.88;4986608;28;20057;-74
2021/05/14 02:47:01;;;;;;;39.20;29.95;;;;;;;-145.50;100.00;65435.88;4999316;28;20472;-74
2021/05/14 02:50:26;;;;;;;37.75;29.20;;;;;;;-145.50;100.00;65435.88;4991927;28;20050;-74
2021/05/14 02:53:51;;;;;;;36.45;29.88;;;;;;;-145.50;100.00;65435.88;4987568;28;20123;-74
2021/05/14 02:57:17;;;;;;;38.65;28.77;;;;;;;-145.50;100.00;65435.88;4999532;28;20081;-74
2021/05/14 03:00:44;;;;;;;37.08;27.85;;;;;;;-145.50;100.00;65435.88;4992139;28;20054;-74
2021/05/14 03:04:09;;;;;;;38.95;29.70;;;;;;;-145.50;100.00;65435.88;4991602;28;20433;-73
2021/05/14 03:07:34;;;;;;;39.35;28.33;;;;;;;-145.50;100.00;65435.88;4987852;28;20473;-73
2021/05/14 03:10:59;;;;;;;40.92;29.13;;;;;;;-145.50;100.00;65435.88;4999329;28;20430;-73
2021/05/14 03:14:24;;;;;;;40.50;29.00;;;;;;;-145.50;100.00;65435.88;4996102;28;20049;-74
2021/05/14 03:17:49;;;;;;;38.92;28.70;;;;;;;-145.50;100.00;65435.88;4991694;28;20145;-74
2021/05/14 03:21:14;;;;;;;39.60;29.05;;;;;;;-145.50;100.00;65435.88;4996706;28;20085;-73
2021/05/14 03:24:39;;;;;;;41.05;30.25;;;;;;;-145.50;100.00;65435.88;4989651;28;20064;-73
2021/05/14 03:28:04;;;;;;;40.92;31.40;;;;;;;-145.50;100.00;65435.88;5013961;28;20054;-73
2021/05/14 03:31:29;;;;;;;38.75;28.98;;;;;;;-145.50;100.00;65435.88;5000193;28;20050;-73
2021/05/14 03:34:55;;;;;;;35.75;27.45;;;;;;;-145.50;100.00;65435.88;4990522;28;20065;-73
2021/05/14 03:38:22;;;;;;;41.83;29.77;;;;;;;-145.50;100.00;65435.88;4999152;28;20058;-73
2021/05/14 03:41:50;;;;;;;40.53;30.77;;;;;;;-145.50;100.00;65435.88;4997684;28;20407;-73
2021/05/14 03:45:16;;;;;;;40.38;29.05;;;;;;;-145.50;100.00;65435.88;4995864;28;20116;-74
2021/05/14 03:48:41;;;;;;;46.70;30.70;;;;;;;-145.50;100.00;65435.88;4991870;28;20058;-73
2021/05/14 03:52:07;;;;;;;44.88;30.92;;;;;;;-145.50;100.00;65435.88;4994854;28;20058;-74
2021/05/14 03:55:28;;;;;;;50.05;32.97;;;;;;;-145.50;100.00;65435.88;5000539;28;20108;-73
2021/05/14 03:58:53;;;;;;;49.60;34.22;;;;;;;-145.50;100.00;65435.88;4990222;28;20053;-74
2021/05/14 04:02:19;;;;;;;47.33;32.63;;;;;;;-145.50;100.00;65435.88;4992039;28;20516;-73
2021/05/14 04:05:44;;;;;;;47.38;32.13;;;;;;;-145.50;100.00;65435.88;5002483;28;20054;-74
2021/05/14 04:09:09;;;;;;;45.53;33.25;;;;;;;-145.50;100.00;65435.88;4996452;28;20108;-74
2021/05/14 04:16:07;;;;;;;48.88;31.92;;;;;;;-145.50;100.00;65435.88;4990818;28;20165;-73
2021/05/14 04:19:33;;;;;;;44.75;31.27;;;;;;;-145.50;100.00;65435.88;4998941;28;20455;-74
2021/05/14 04:22:58;;;;;;;48.03;30.73;;;;;;;-145.50;100.00;65435.88;4997877;28;20092;-74
2021/05/14 04:26:23;;;;;;;49.45;31.25;;;;;;;-145.50;100.00;65435.88;4996304;28;20057;-74
2021/05/14 04:29:02;;;;;;;44.35;30.05;;;;;;;-145.50;100.00;65435.88;4993021;28;20053;-74
2021/05/14 04:31:55;;;;;;;;;;;;;;;-145.50;100.00;65435.88;4989879;28;20207;-74
2021/05/14 04:35:00;;;;;;;47.50;30.13;;;;;;;-145.50;100.00;65435.88;4999249;28;20440;-74
2021/05/14 04:37:48;;;;;;;48.13;31.23;;;;;;;-145.50;100.00;65435.88;4992198;28;20510;-74
2021/05/14 04:40:20;;;;;;;48.33;32.40;;;;;;;-145.50;100.00;65435.88;4999784;28;20046;-74
2021/05/14 04:43:00;;;;;;;47.72;32.65;;;;;;;-145.50;100.00;65435.88;4984765;28;20160;-73
2021/05/14 04:45:44;;;;;;;47.78;30.88;;;;;;;-145.50;100.00;65435.88;4998349;28;20088;-74
2021/05/14 04:48:21;;;;;;;47.28;31.88;;;;;;;-145.50;100.00;65435.88;4992317;28;20081;-74
2021/05/14 04:51:04;;;;;;;49.03;31.55;;;;;;;-145.50;100.00;65435.88;4999537;28;20149;-74
2021/05/14 04:53:48;;;;;;;51.33;32.35;;;;;;;-145.50;100.00;65435.88;4990487;28;20050;-74
2021/05/14 04:56:24;;;;;;;50.70;32.35;;;;;;;-145.50;100.00;65435.88;4997678;28;20181;-74
2021/05/14 04:58:57;;;;;;;53.38;32.85;;;;;;;-145.50;100.00;65435.88;4996217;28;20050;-74
2021/05/14 05:01:42;;;;;;;54.58;35.28;;;;;;;-145.50;100.00;65435.88;4989889;28;20053;-74
2021/05/14 05:04:21;;;;;;;59.53;35.95;;;;;;;-145.50;100.00;65435.88;5000983;28;20050;-74
2021/05/14 05:06:48;;;;;;;58.33;34.17;;;;;;;-145.50;100.00;65435.88;4991005;28;20050;-74
2021/05/14 05:09:36;;;;;;;62.22;36.92;;;;;;;-145.50;100.00;65435.88;4996176;28;20148;-74
2021/05/14 05:12:24;;;;;;;59.13;34.70;;;;;;;-145.50;100.00;65435.88;4988435;28;20099;-74
2021/05/14 05:15:14;;;;;;;60.83;35.70;;;;;;;-145.50;100.00;65435.88;4995394;28;20573;-74
2021/05/14 05:18:39;;;;;;;62.05;36.42;;;;;;;-145.50;100.00;65435.88;4991636;28;20144;-74
2021/05/14 05:21:11;;;;;;;58.17;35.97;;;;;;;-145.50;100.00;65435.88;4997896;28;20121;-74
2021/05/14 05:24:36;;;;;;;68.75;37.90;;;;;;;-145.50;100.00;65435.88;4986225;28;20054;-74
2021/05/14 05:28:03;;;;;;;63.47;37.60;;;;;;;-145.50;100.00;65435.88;4991851;28;20086;-74
2021/05/14 05:31:28;;;;;;;61.00;35.63;;;;;;;-145.50;100.00;65435.88;4999112;28;20048;-74
2021/05/14 05:34:53;;;;;;;61.97;35.17;;;;;;;-145.50;100.00;65435.88;4989718;28;20696;-73
2021/05/14 05:38:19;;;;;;;65.90;37.45;;;;;;;-145.50;100.00;65435.88;4991887;28;20085;-73
2021/05/14 05:41:44;;;;;;;66.32;36.42;;;;;;;-145.50;100.00;65435.88;4985953;28;20053;-74
2021/05/14 05:45:09;;;;;;;67.40;37.65;;;;;;;-145.50;100.00;65435.88;5001572;28;20336;-74
2021/05/14 05:48:34;;;;;;;65.88;36.15;;;;;;;-145.50;100.00;65435.88;4995833;28;20054;-74
2021/05/14 05:51:59;;;;;;;63.25;36.10;;;;;;;-145.50;100.00;65435.88;4990325;28;20045;-73
2021/05/14 05:55:24;;;;;;;56.15;33.25;;;;;;;-145.50;100.00;65435.88;4995539;28;20053;-74
2021/05/14 05:58:49;;;;;;;59.70;32.95;;;;;;;-145.50;100.00;65435.88;4990954;28;20085;-74
2021/05/14 06:02:14;;;;;;;50.47;30.63;;;;;;;-145.50;100.00;65435.88;4996971;28;20659;-74
2021/05/14 06:05:40;;;;;;;41.75;26.83;;;;;;;-145.50;100.00;65435.88;4996361;28;20061;-74
2021/05/14 06:09:05;;;;;;;31.13;22.67;;;;;;;-145.50;100.00;65435.88;4986125;28;20488;-74
2021/05/14 06:12:06;;;;;;;32.03;22.55;;;;;;;-145.50;100.00;65435.88;4995771;28;20145;-73
2021/05/14 06:14:52;;;;;;;33.05;23.10;;;;;;;-145.50;100.00;65435.88;4990024;28;20069;-74
2021/05/14 06:18:18;;;;;;;31.48;20.58;;;;;;;-145.50;100.00;65435.88;4993111;28;20108;-74
2021/05/14 06:20:49;;;;;;;31.88;22.15;;;;;;;-145.50;100.00;65435.88;4982807;28;20104;-74
2021/05/14 06:23:23;;;;;;;31.25;21.70;;;;;;;-145.50;100.00;65435.88;4997906;28;20170;-74
2021/05/14 06:25:56;;;;;;;30.63;21.88;;;;;;;-145.50;100.00;65435.88;4990830;28;20084;-74
2021/05/14 06:28:36;;;;;;;30.60;22.55;;;;;;;-145.50;100.00;65435.88;4996792;28;20077;-74
2021/05/14 06:31:34;;;;;;;32.17;22.65;;;;;;;-145.50;100.00;65435.88;4991833;28;20684;-74
2021/05/14 06:34:08;;;;;;;33.38;23.13;;;;;;;-145.50;100.00;65435.88;4994689;28;20128;-74
2021/05/14 06:36:35;;;;;;;33.10;23.55;;;;;;;-145.50;100.00;65435.88;4981924;28;20506;-74
2021/05/14 06:39:06;;;;;;;30.65;22.48;;;;;;;-145.50;100.00;65435.88;4997695;28;20052;-74
2021/05/14 06:41:33;;;;;;;30.15;22.23;;;;;;;-145.50;100.00;65435.88;4994593;28;20125;-74
2021/05/14 06:44:01;;;;;;;28.95;21.45;;;;;;;-145.50;100.00;65435.88;4994920;28;20092;-74
2021/05/14 06:46:27;;;;;;;36.15;23.05;;;;;;;-145.50;100.00;65435.88;4992812;28;20473;-74
2021/05/14 06:48:54;;;;;;;35.13;21.63;;;;;;;-145.50;100.00;65435.88;4988320;28;20081;-74
2021/05/14 06:51:25;;;;;;;27.92;21.10;;;;;;;-145.50;100.00;65435.88;4994818;28;20515;-74
2021/05/14 06:53:56;;;;;;;31.35;21.48;;;;;;;-145.50;100.00;65435.88;4994548;28;20054;-74
2021/05/14 06:56:32;;;;;;;33.50;22.85;;;;;;;-145.50;100.00;65435.88;4997462;28;20049;-74
2021/05/14 06:59:03;;;;;;;31.50;22.23;;;;;;;-145.50;100.00;65435.88;4998639;28;20575;-74
2021/05/14 07:01:33;;;;;;;30.23;22.60;;;;;;;-145.50;100.00;65435.88;4994324;28;20621;-74
2021/05/14 07:04:04;;;;;;;37.65;24.38;;;;;;;-145.50;100.00;65435.88;4998380;28;20050;-73
2021/05/14 07:06:35;;;;;;;33.10;22.83;;;;;;;-145.50;100.00;65435.88;4994163;28;20140;-74
2021/05/14 07:09:07;;;;;;;36.38;23.45;;;;;;;-145.50;100.00;65435.88;5000658;28;20054;-74
2021/05/14 07:11:41;;;;;;;36.00;25.13;;;;;;;-145.50;100.00;65435.88;4991537;28;20057;-74
2021/05/14 07:14:08;;;;;;;38.03;24.30;;;;;;;-145.50;100.00;65435.88;5003298;28;20089;-73
2021/05/14 07:16:37;;;;;;;32.80;22.85;;;;;;;-145.50;100.00;65435.88;4985913;28;20057;-74
2021/05/14 07:19:14;;;;;;;32.90;24.10;;;;;;;-145.50;100.00;65435.88;4999373;28;20082;-74
2021/05/14 07:21:45;;;;;;;35.72;25.40;;;;;;;-145.50;100.00;65435.88;4996284;28;20050;-74
2021/05/14 07:24:34;;;;;;;33.35;24.05;;;;;;;-145.50;100.00;65435.88;4996623;28;20054;-74
2021/05/14 07:27:24;;;;;;;37.08;25.45;;;;;;;-145.50;100.00;65435.88;5000519;28;20513;-74
2021/05/14 07:30:13;;;;;;;31.83;24.00;;;;;;;-145.50;100.00;65435.88;4992751;28;20058;-74
2021/05/14 07:33:01;;;;;;;32.22;23.20;;;;;;;-145.50;100.00;65435.88;4997276;28;20072;-74
2021/05/14 07:35:56;;;;;;;33.42;23.90;;;;;;;-145.50;100.00;65435.88;4994552;28;20056;-74
2021/05/14 07:38:43;;;;;;;36.38;24.77;;;;;;;-145.50;100.00;65435.88;4997737;28;20082;-74
2021/05/14 07:41:32;;;;;;;33.03;23.87;;;;;;;-145.50;100.00;65435.88;4993184;28;20078;-74
2021/05/14 07:44:21;;;;;;;34.33;25.67;;;;;;;-145.50;100.00;65435.88;4998431;28;20556;-74
2021/05/14 07:47:09;;;;;;;37.55;25.92;;;;;;;-145.50;100.00;65435.88;4993682;28;20089;-74
2021/05/14 07:49:56;;;;;;;37.30;26.75;;;;;;;-145.50;100.00;65435.88;4997247;28;20430;-74
2021/05/14 07:52:45;;;;;;;35.28;25.15;;;;;;;-145.50;100.00;65435.88;4992557;28;20076;-74
2021/05/14 07:55:31;;;;;;;;;;;;;;;-145.50;100.00;65435.88;5001132;28;20053;-74
2021/05/14 07:58:20;;;;;;;37.83;26.30;;;;;;;-145.50;100.00;65435.88;4989587;28;19925;-74
2021/05/14 08:01:07;;;;;;;37.38;26.70;;;;;;;-145.50;100.00;65435.88;4997411;28;20057;-74
2021/05/14 08:03:54;;;;;;;40.13;28.98;;;;;;;-145.50;100.00;65435.88;4993075;28;20876;-74
2021/05/14 08:06:42;;;;;;;37.45;26.10;;;;;;;-145.50;100.00;65435.88;4999589;28;20727;-74
2021/05/14 08:09:29;;;;;;;37.90;26.38;;;;;;;-145.50;100.00;65435.88;4996335;28;20050;-74
2021/05/14 08:12:16;;;;;;;35.78;26.88;;;;;;;-145.50;100.00;65435.88;4994476;28;20100;-74
2021/05/14 08:15:03;;;;;;;37.72;27.17;;;;;;;-145.50;100.00;65435.88;4997116;28;20141;-73
2021/05/14 08:17:51;;;;;;;35.75;26.55;;;;;;;-145.50;100.00;65435.88;4999431;28;20057;-73
2021/05/14 08:20:41;;;;;;;35.83;27.42;;;;;;;-145.50;100.00;65435.88;4993625;28;20080;-73
2021/05/14 08:23:29;;;;;;;38.08;28.98;;;;;;;-145.50;100.00;65435.88;4998492;28;20128;-72
2021/05/14 08:26:16;;;;;;;35.35;25.33;;;;;;;-145.50;100.00;65435.88;4984542;28;20058;-72
2021/05/14 08:29:03;;;;;;;36.63;26.55;;;;;;;-145.50;100.00;65435.88;5000168;28;20149;-73
2021/05/14 08:31:50;;;;;;;34.92;26.45;;;;;;;-145.50;100.00;65435.88;4992315;28;20567;-73
2021/05/14 08:34:37;;;;;;;37.00;27.00;;;;;;;-145.50;100.00;65435.88;5000296;28;20053;-73
2021/05/14 08:37:24;;;;;;;33.40;24.75;;;;;;;-145.50;100.00;65435.88;4991421;28;20081;-73
2021/05/14 08:40:11;;;;;;;35.30;25.23;;;;;;;-145.50;100.00;65435.88;4993175;28;20080;-73
2021/05/14 08:43:00;;;;;;;32.05;24.63;;;;;;;-145.50;100.00;65435.88;4993638;28;20053;-74
2021/05/14 08:45:48;;;;;;;35.28;27.05;;;;;;;-145.50;100.00;65435.88;4995038;28;20050;-74
2021/05/14 08:48:36;;;;;;;37.03;25.70;;;;;;;-145.50;100.00;65435.88;4997627;28;20108;-72
2021/05/14 08:51:29;;;;;;;38.60;28.23;;;;;;;-145.50;100.00;65435.88;4996236;28;20054;-75
2021/05/14 08:54:17;;;;;;;38.70;29.15;;;;;;;-145.50;100.00;65435.88;4989344;28;20049;-72
2021/05/14 08:57:04;;;;;;;35.08;26.95;;;;;;;-145.50;100.00;65435.88;5000231;28;20096;-72
2021/05/14 08:59:52;;;;;;;32.22;23.90;;;;;;;-145.50;100.00;65435.88;4992087;28;20077;-72
2021/05/14 09:02:40;;;;;;;34.45;25.42;;;;;;;-145.50;100.00;65435.88;4999626;28;20096;-73
2021/05/14 09:05:47;;;;;;;35.97;26.08;;;;;;;-145.50;100.00;65435.88;4992182;28;20050;-72
2021/05/14 09:08:54;;;;;;;31.80;24.70;;;;;;;-145.50;100.00;65435.88;4997660;28;20510;-74
2021/05/14 09:11:56;;;;;;;36.80;27.40;;;;;;;-145.50;100.00;65435.88;4992797;28;20128;-74
2021/05/14 09:14:51;;;;;;;34.53;25.73;;;;;;;-145.50;100.00;65435.88;4998617;28;20081;-72
2021/05/14 09:17:38;;;;;;;31.77;23.42;;;;;;;-145.50;100.00;65435.88;4994137;28;20050;-72
2021/05/14 09:20:29;;;;;;;35.58;24.63;;;;;;;-145.50;100.00;65435.88;4995788;28;20169;-71
2021/05/14 09:23:20;;;;;;;33.25;24.15;;;;;;;-145.50;100.00;65435.88;4985154;28;20050;-72
2021/05/14 09:26:16;;;;;;;35.42;25.40;;;;;;;-145.50;100.00;65435.88;4995642;28;20067;-73
2021/05/14 09:29:04;;;;;;;37.65;25.85;;;;;;;-145.50;100.00;65435.88;4993442;28;20054;-72
2021/05/14 09:31:52;;;;;;;35.95;25.98;;;;;;;-145.50;100.00;65435.88;4998790;28;20085;-73
2021/05/14 09:34:39;;;;;;;;;;;;;;;-145.50;100.00;65435.88;4989291;28;20042;-72
2021/05/14 09:37:47;;;;;;;34.38;23.95;;;;;;;-145.50;100.00;65435.88;5000459;28;19995;-73
2021/05/14 09:40:37;;;;;;;31.48;24.98;;;;;;;-145.50;100.00;65435.88;4990887;28;20170;-73
2021/05/14 09:43:24;;;;;;;36.50;24.98;;;;;;;-145.50;100.00;65435.88;4996857;28;20119;-73
2021/05/14 09:46:23;;;;;;;33.90;24.50;;;;;;;-145.50;100.00;65435.88;5008440;28;20062;-73
2021/05/14 09:49:19;;;;;;;36.33;25.42;;;;;;;-145.50;100.00;65435.88;4997501;28;20107;-73
2021/05/14 09:52:25;;;;;;;35.85;26.13;;;;;;;-145.50;100.00;65435.88;4994136;28;20054;-73
2021/05/14 09:55:22;;;;;;;33.17;24.40;;;;;;;-145.50;100.00;65435.88;4996433;28;20058;-71
2021/05/14 09:58:22;;;;;;;37.08;25.60;;;;;;;-145.50;100.00;65435.88;5004560;28;20058;-73
2021/05/14 10:01:12;;;;;;;34.40;26.35;;;;;;;-145.50;100.00;65435.88;4994735;28;20045;-72
2021/05/14 10:03:59;;;;;;;38.70;24.27;;;;;;;-145.50;100.00;65435.88;4987258;28;20054;-73
2021/05/14 10:06:47;;;;;;;32.08;22.95;;;;;;;-145.50;100.00;65435.88;4997414;28;20098;-73
2021/05/14 10:09:35;;;;;;;33.17;23.30;;;;;;;-145.50;100.00;65435.88;5006725;28;20155;-73
2021/05/14 10:12:28;;;;;;;32.30;23.75;;;;;;;-145.50;100.00;65435.88;4991506;28;20050;-73
2021/05/14 10:15:15;;;;;;;33.47;23.90;;;;;;;-145.50;100.00;65435.88;4986002;28;20080;-73
2021/05/14 10:18:19;;;;;;;34.92;24.58;;;;;;;-145.50;100.00;65435.88;5000775;28;20053;-74
2021/05/14 10:21:08;;;;;;;35.05;24.33;;;;;;;-145.50;100.00;65435.88;4992461;28;20358;-74
2021/05/14 10:24:33;;;;;;;33.65;24.05;;;;;;;-145.50;100.00;65435.88;4988562;28;20120;-73
2021/05/14 10:27:39;;;;;;;32.10;22.07;;;;;;;-145.50;100.00;65435.88;4988535;28;20072;-73
2021/05/14 10:30:27;;;;;;;33.67;22.75;;;;;;;-145.50;100.00;65435.88;4996038;28;20854;-75
2021/05/14 10:33:34;;;;;;;31.67;22.80;;;;;;;-145.50;100.00;65435.88;4987982;28;20054;-75
2021/05/14 10:36:21;;;;;;;33.30;20.55;;;;;;;-145.50;100.00;65435.88;4998809;28;20461;-74
2021/05/14 10:39:39;;;;;;;30.13;21.42;;;;;;;-145.50;100.00;65435.88;4983079;28;20806;-75
2021/05/14 10:42:38;;;;;;;;;;;;;;;-145.50;100.00;65435.88;4999359;28;20062;-75
2021/05/14 10:45:35;;;;;;;28.67;17.85;;;;;;;-145.50;100.00;65435.88;4989902;28;19979;-75
2021/05/14 10:48:24;;;;;;;29.27;20.55;;;;;;;-145.50;100.00;65435.88;4996345;28;20078;-74
2021/05/14 10:51:19;;;;;;;28.13;21.25;;;;;;;-145.50;100.00;65435.88;4990776;28;20590;-77
2021/05/14 10:54:06;;;;;;;26.25;19.75;;;;;;;-145.50;100.00;65435.88;4992160;28;20066;-78
2021/05/14 10:57:08;;;;;;;24.08;17.60;;;;;;;-145.50;100.00;65435.88;4987267;28;20820;-76
2021/05/14 10:59:56;;;;;;;23.25;18.17;;;;;;;-145.50;100.00;65435.88;4992497;28;20081;-77
2021/05/14 11:03:06;;;;;;;24.48;17.50;;;;;;;-145.50;100.00;65435.88;4989813;28;20050;-75
2021/05/14 11:06:16;;;;;;;25.33;18.70;;;;;;;-145.50;100.00;65435.88;4998224;28;20061;-77
2021/05/14 11:09:17;;;;;;;24.42;17.27;;;;;;;-145.50;100.00;65435.88;4990352;28;20133;-76
2021/05/14 11:12:25;;;;;;;24.42;17.67;;;;;;;-145.50;100.00;65435.88;4991888;28;20053;-76
2021/05/14 11:15:18;;;;;;;23.83;17.58;;;;;;;-145.50;100.00;65435.88;4994967;28;20156;-76
2021/05/14 11:18:25;;;;;;;21.55;17.38;;;;;;;-145.50;100.00;65435.88;4990466;28;20432;-76
2021/05/14 11:21:13;;;;;;;22.17;15.55;;;;;;;-145.50;100.00;65435.88;4996363;28;20138;-76
2021/05/14 11:24:06;;;;;;;20.65;15.85;;;;;;;-145.50;100.00;65435.88;4979869;28;20467;-76
2021/05/14 11:27:13;;;;;;;18.42;15.05;;;;;;;-145.50;100.00;65435.88;4997332;28;20089;-76
2021/05/14 11:30:05;;;;;;;19.77;14.55;;;;;;;-145.50;100.00;65435.88;4990676;28;20080;-76
2021/05/14 11:33:10;;;;;;;18.45;14.02;;;;;;;-145.50;100.00;65435.88;4996750;28;20046;-77
2021/05/14 11:36:03;;;;;;;21.43;14.63;;;;;;;-145.50;100.00;65435.88;4990192;28;20060;-77
2021/05/14 11:38:53;;;;;;;17.42;13.05;;;;;;;-145.50;100.00;65435.88;5001893;28;20414;-77
2021/05/14 11:41:47;;;;;;;18.08;13.50;;;;;;;-145.50;100.00;65435.88;4995215;28;20206;-77
2021/05/14 11:44:34;;;;;;;14.68;12.38;;;;;;;-145.50;100.00;65435.88;4996996;28;20085;-76
2021/05/14 11:47:21;;;;;;;16.15;12.60;;;;;;;-145.50;100.00;65435.88;5003515;28;20195;-76
2021/05/14 11:50:09;;;;;;;13.50;11.03;;;;;;;-145.50;100.00;65435.88;4994417;28;20049;-76
2021/05/14 11:52:59;;;;;;;15.63;11.35;;;;;;;-145.50;100.00;65435.88;4991742;28;20057;-76
2021/05/14 11:55:47;;;;;;;15.77;10.50;;;;;;;-145.50;100.00;65435.88;5005749;28;20094;-77
2021/05/14 11:58:35;;;;;;;14.82;10.85;;;;;;;-145.50;100.00;65435.88;4987674;28;20143;-76
2021/05/14 12:01:35;;;;;;;13.57;9.65;;;;;;;-145.50;100.00;65435.88;5002687;28;20058;-78
2021/05/14 12:04:23;;;;;;;11.55;9.43;;;;;;;-145.50;100.00;65435.88;4989105;28;20692;-78
2021/05/14 12:07:11;;;;;;;12.55;10.57;;;;;;;-145.50;100.00;65435.88;5007724;28;20060;-76
2021/05/14 12:09:58;;;;;;;13.30;9.18;;;;;;;-145.50;100.00;65435.88;4996337;28;20053;-76
2021/05/14 12:12:47;;;;;;;11.20;9.48;;;;;;;-145.50;100.00;65435.88;4997784;28;20137;-75
2021/05/14 12:15:34;;;;;;;13.38;9.60;;;;;;;-145.50;100.00;65435.88;4991355;28;20098;-78
2021/05/14 12:18:10;;;;;;;13.15;9.25;;;;;;;-145.50;100.00;65435.88;4993780;28;20053;-75
2021/05/14 12:20:42;;;;;;;11.73;9.50;;;;;;;-145.50;100.00;65435.88;4991582;28;20546;-77
2021/05/14 12:23:11;;;;;;;11.38;9.27;;;;;;;-145.50;100.00;65435.88;4997428;28;20073;-77
2021/05/14 12:26:02;;;;;;;10.45;8.00;;;;;;;-145.50;100.00;65435.88;5003352;28;20053;-77
2021/05/14 12:28:41;;;;;;;11.93;8.48;;;;;;;-145.50;100.00;65435.88;4985104;28;20105;-76
2021/05/14 12:31:10;;;;;;;10.32;8.27;;;;;;;-145.50;100.00;65435.88;5001949;28;20689;-76
2021/05/14 12:33:53;;;;;;;11.57;8.00;;;;;;;-145.50;100.00;65435.88;4990385;28;20820;-77
2021/05/14 12:36:34;;;;;;;10.27;7.70;;;;;;;-145.50;100.00;65435.88;4999807;28;20049;-76
2021/05/14 12:39:12;;;;;;;9.68;8.23;;;;;;;-145.50;100.00;65435.88;4991759;28;20077;-77
2021/05/14 12:41:42;;;;;;;8.88;6.85;;;;;;;-145.50;100.00;65435.88;4993681;28;20113;-77
2021/05/14 12:44:09;;;;;;;9.18;6.97;;;;;;;-145.50;100.00;65435.88;4990060;28;20124;-77
2021/05/14 12:46:55;;;;;;;9.60;7.05;;;;;;;-145.50;100.00;65435.88;5003271;28;20790;-76
2021/05/14 12:49:23;;;;;;;8.93;6.68;;;;;;;-145.50;100.00;65435.88;4991883;28;21087;-75
2021/05/14 12:52:10;;;;;;;10.23;6.75;;;;;;;-145.50;100.00;65435.88;4992729;28;20058;-76
2021/05/14 12:54:50;;;;;;;8.77;7.72;;;;;;;-145.50;100.00;65435.88;4995001;28;20054;-76
2021/05/14 12:57:35;;;;;;;10.15;7.13;;;;;;;-145.50;100.00;65435.88;4992722;28;20108;-77
2021/05/14 13:00:12;;;;;;;6.93;5.15;;;;;;;-145.50;100.00;65435.88;5002602;28;20050;-76
2021/05/14 13:02:39;;;;;;;8.05;5.70;;;;;;;-145.50;100.00;65435.88;5009252;28;20054;-75
2021/05/14 13:05:07;;;;;;;10.48;7.93;;;;;;;-145.50;100.00;65435.88;4999396;28;20589;-75
2021/05/14 13:07:34;;;;;;;;;;;;;;;-145.50;100.00;65435.88;4994530;28;20276;-77
2021/05/14 13:10:00;;;;;;;8.70;7.07;;;;;;;-145.50;100.00;65435.88;4994007;28;20765;-74
2021/05/14 13:12:27;;;;;;;6.95;5.82;;;;;;;-145.50;100.00;65435.88;4990334;28;20470;-74
2021/05/14 13:14:54;;;;;;;7.40;6.07;;;;;;;-145.50;100.00;65435.88;5001084;28;20054;-74